Latest Weather Observations for Marble Bar

IDW60801

Issued at 7:32 am WST Monday 6 July 2015 (issued every 30 minutes, with the page automatically refreshed every 10 minutes)

About weather observations | Map of weather stations | Latest weather observations for WA | Other Formats
Station Details ID: 004106 Name: MARBLE BAR Lat: -21.18 Lon: 119.75 Height: 182.3 m
Data from the previous 72 hours. | See also: Recent months at Marble Bar
Date/Time
WST
Temp
°C
App
Temp
°C
Dew
Point
Rel
Hum
%
Delta-T
°C
Wind Press
QNH
hPa
Press
MSL
hPa
Rain
since 9 am
mm
Dir
 
Spd
km/h
Gust
km/h
Spd
kts
Gust
kts
06/07:30am 13.5 11.4 3.8 52 4.4 SW 4 4 2 2 1018.7 1018.2 0.0
06/07:00am 10.4 8.1 2.7 59 3.3 SW 4 4 2 2 1018.3 1017.8 0.0
06/06:30am 10.9 8.9 2.5 56 3.6 SSW 2 4 1 2 1018.1 1017.6 0.0
06/06:00am 10.6 8.6 2.2 56 3.6 SSE 2 4 1 2 1017.8 1017.3 0.0
06/05:30am 13.3 10.2 1.3 44 5.2 SE 7 9 4 5 1017.4 1017.0 0.0
06/05:00am 13.6 10.2 1.6 44 5.2 SE 9 9 5 5 1017.3 1016.9 0.0
06/04:30am 12.1 9.2 1.7 49 4.5 SE 6 9 3 5 1017.4 1017.0 0.0
06/04:00am 12.6 9.5 1.6 47 4.7 SSE 7 11 4 6 1017.4 1017.0 0.0
06/03:30am 13.7 10.2 1.4 43 5.3 SE 9 11 5 6 1017.5 1017.1 0.0
06/03:00am 14.3 10.4 1.2 41 5.7 SE 11 13 6 7 1017.5 1017.1 0.0
06/02:30am 13.5 10.0 1.5 44 5.2 SSE 9 11 5 6 1017.8 1017.3 0.0
06/02:00am 12.2 9.2 1.8 49 4.5 SSE 7 9 4 5 1018.0 1017.5 0.0
06/01:30am 13.0 10.1 1.7 46 4.9 S 6 7 3 4 1018.2 1017.7 0.0
06/01:00am 14.4 11.8 1.0 40 5.8 SSE 4 7 2 4 1018.4 1017.9 0.0
06/12:30am 13.3 10.4 1.3 44 5.2 SSE 6 7 3 4 1018.4 1017.9 0.0
06/12:00am 14.3 11.3 0.9 40 5.8 S 6 6 3 3 1018.5 1018.0 0.0
 
Date/Time
WST
Temp
°C
App
Temp
°C
Dew
Point
Rel
Hum
%
Delta-T
°C
Wind Press
QNH
hPa
Press
MSL
hPa
Rain
since 9 am
mm
Dir
 
Spd
km/h
Gust
km/h
Spd
kts
Gust
kts
05/11:30pm 16.4 12.7 0.1 33 7.1 SE 9 11 5 6 1018.3 1017.8 0.0
05/11:00pm 15.9 12.6 0.1 34 6.8 SE 7 9 4 5 1018.3 1017.8 0.0
05/10:30pm 16.1 12.8 0.3 34 6.8 SE 7 9 4 5 1018.3 1017.8 0.0
05/10:00pm 17.3 13.2 0.0 31 7.5 SE 11 13 6 7 1018.4 1017.9 0.0
05/09:30pm 17.3 13.6 0.0 31 7.5 SE 9 11 5 6 1018.2 1017.7 0.0
05/09:00pm 17.2 13.6 0.4 32 7.4 SE 9 9 5 5 1018.3 1017.8 0.0
05/08:30pm 17.8 14.2 0.5 31 7.6 SE 9 11 5 6 1018.4 1017.9 0.0
05/08:00pm 18.4 14.5 1.0 31 7.8 SE 11 13 6 7 1018.4 1017.9 0.0
05/07:30pm 17.5 14.4 1.1 33 7.3 SE 7 9 4 5 1018.3 1017.8 0.0
05/07:00pm 18.3 15.6 0.4 30 7.9 SE 4 7 2 4 1018.1 1017.6 0.0
05/06:30pm 18.9 15.6 0.0 28 8.3 SE 7 9 4 5 1017.6 1017.2 0.0
05/06:00pm 21.1 17.4 -0.2 24 9.5 ESE 9 11 5 6 1017.4 1017.0 0.0
05/05:30pm 23.0 19.6 -0.5 21 10.6 ESE 7 9 4 5 1017.3 1016.9 0.0
05/05:00pm 25.1 20.8 -1.6 17 12.0 ESE 11 19 6 10 1017.3 1016.9 0.0
05/04:30pm 25.9 21.1 -2.7 15 12.7 SE 13 20 7 11 1017.0 1016.5 0.0
05/04:00pm 26.4 21.3 -2.3 15 12.9 SE 15 22 8 12 1016.9 1016.4 0.0
05/03:30pm 26.7 22.3 -2.1 15 13.0 ESE 11 20 6 11 1016.9 1016.4 0.0
05/03:00pm 26.7 21.6 -2.1 15 13.0 ESE 15 24 8 13 1017.1 1016.7 0.0
05/02:30pm 27.3 22.6 -1.6 15 13.3 E 13 28 7 15 1017.2 1016.8 0.0
05/02:00pm 26.9 22.6 -1.9 15 13.1 E 11 19 6 10 1017.5 1017.1 0.0
05/01:30pm 26.8 21.8 -1.1 16 12.9 E 15 24 8 13 1018.0 1017.5 0.0
05/01:00pm 26.7 20.9 -1.2 16 12.8 E 19 32 10 17 1018.2 1017.7 0.0
05/12:30pm 26.3 20.6 -0.7 17 12.5 ESE 19 30 10 16 1018.7 1018.2 0.0
05/12:00pm 26.0 20.1 -0.9 17 12.3 ESE 20 30 11 16 1019.4 1018.9 0.0
05/11:30am 25.3 19.5 -1.5 17 12.1 ESE 19 30 10 16 1019.9 1019.4 0.0
05/11:00am 25.2 20.3 -0.8 18 11.9 E 15 28 8 15 1020.4 1019.9 0.0
05/10:30am 24.3 19.7 -0.8 19 11.4 E 13 20 7 11 1020.8 1020.3 0.0
05/10:00am 23.8 19.2 -1.2 19 11.2 E 13 19 7 10 1020.9 1020.4 0.0
05/09:30am 22.6 18.9 -0.2 22 10.3 E 9 13 5 7 1021.3 1020.8 0.0
05/09:00am 21.0 17.4 0.8 26 9.2 E 9 13 5 7 1021.4 1020.9 0.0
05/08:30am 20.0 17.6 1.9 30 8.4 SE 4 11 2 6 1021.2 1020.7 0.0
05/08:00am 16.3 14.7 2.7 40 6.2 CALM 0 0 0 0 1020.9 1020.4 0.0
05/07:30am 13.9 12.2 3.9 51 4.6 SW 2 6 1 3 1020.7 1020.2 0.0
05/07:00am 11.2 8.6 3.0 57 3.6 SSW 6 9 3 5 1020.3 1019.8 0.0
05/06:30am 10.9 8.9 2.5 56 3.6 SSW 2 4 1 2 1019.9 1019.4 0.0
05/06:00am 10.8 8.5 2.6 57 3.6 SSW 4 7 2 4 1019.5 1019.0 0.0
05/05:30am 10.9 8.6 2.7 57 3.6 SSW 4 7 2 4 1019.3 1018.8 0.0
05/05:00am 10.3 8.8 2.9 60 3.2 CALM 0 0 0 0 1019.2 1018.7 0.0
05/04:30am 11.6 9.3 2.9 55 3.8 S 4 4 2 2 1019.2 1018.7 0.0
05/04:00am 10.4 8.8 2.7 59 3.3 CALM 0 0 0 0 1019.1 1018.6 0.0
05/03:30am 11.5 9.9 2.5 54 3.9 CALM 0 2 0 1 1019.1 1018.6 0.0
05/03:00am 12.3 10.3 2.5 51 4.3 SSW 2 4 1 2 1019.1 1018.6 0.0
05/02:30am 12.6 10.6 2.2 49 4.6 SSW 2 4 1 2 1019.1 1018.6 0.0
05/02:00am 13.7 11.3 2.3 46 5.0 SSW 4 6 2 3 1019.2 1018.7 0.0
05/01:30am 12.5 10.2 2.7 51 4.3 S 4 6 2 3 1019.2 1018.7 0.0
05/01:00am 11.9 10.1 3.4 56 3.8 SSE 2 4 1 2 1019.2 1018.7 0.0
05/12:30am 13.1 10.7 2.1 47 4.8 SSE 4 6 2 3 1019.1 1018.6 0.0
05/12:00am 13.3 11.0 2.5 48 4.8 SE 4 6 2 3 1019.2 1018.7 0.0
 
Date/Time
WST
Temp
°C
App
Temp
°C
Dew
Point
Rel
Hum
%
Delta-T
°C
Wind Press
QNH
hPa
Press
MSL
hPa
Rain
since 9 am
mm
Dir
 
Spd
km/h
Gust
km/h
Spd
kts
Gust
kts
04/11:30pm 14.2 11.2 2.1 44 5.4 SSE 7 9 4 5 1019.3 1018.8 0.0
04/11:00pm 15.1 12.5 0.9 38 6.2 SE 4 6 2 3 1019.3 1018.8 0.0
04/10:30pm 15.8 12.7 1.2 37 6.4 SE 7 9 4 5 1019.3 1018.8 0.0
04/10:00pm 16.6 13.5 1.1 35 6.8 SE 7 9 4 5 1019.5 1019.0 0.0
04/09:30pm 16.6 13.6 1.1 35 6.9 SE 6 7 3 4 1019.6 1019.1 0.0
04/09:00pm 17.2 14.0 0.8 33 7.2 SE 7 7 4 4 1019.4 1018.9 0.0
04/08:30pm 17.4 14.2 1.0 33 7.3 ESE 7 9 4 5 1019.2 1018.7 0.0
04/08:00pm 18.4 14.8 0.5 30 7.9 SE 9 9 5 5 1019.1 1018.6 0.0
04/07:30pm 18.5 15.4 1.1 31 7.8 SE 7 9 4 5 1018.8 1018.3 0.0
04/07:00pm 18.9 15.7 1.0 30 8.0 SE 7 9 4 5 1018.6 1018.1 0.0
04/06:30pm 18.4 15.3 1.4 32 7.7 SE 7 9 4 5 1018.5 1018.0 0.0
04/06:00pm 21.5 17.8 0.1 24 9.7 ESE 9 9 5 5 1018.2 1017.7 0.0
04/05:30pm 23.6 20.2 -0.6 20 11.0 ESE 7 13 4 7 1018.0 1017.5 0.0
04/05:00pm 25.6 20.5 -2.1 16 12.4 ESE 15 20 8 11 1017.8 1017.3 0.0
04/04:30pm 26.4 20.9 -2.3 15 12.9 ESE 17 28 9 15 1017.8 1017.3 0.0
04/04:00pm 26.7 20.6 -4.0 13 13.4 ESE 19 30 10 16 1017.8 1017.3 0.0
04/03:30pm 27.1 21.3 -4.7 12 13.8 ESE 17 30 9 16 1017.6 1017.2 0.0
04/03:00pm 27.2 21.1 -3.6 13 13.6 ESE 19 32 10 17 1017.8 1017.3 0.0
04/02:30pm 27.0 20.4 -3.7 13 13.5 E 22 32 12 17 1017.9 1017.4 0.0
04/02:00pm 27.1 20.8 -3.7 13 13.6 ESE 20 33 11 18 1018.2 1017.7 0.0
04/01:30pm 26.7 20.5 -3.0 14 13.2 ESE 20 33 11 18 1018.5 1018.0 0.0
04/01:00pm 26.7 20.5 -3.0 14 13.2 ESE 20 39 11 21 1018.8 1018.3 0.0
04/12:30pm 26.1 19.5 -3.5 14 13.0 ESE 22 35 12 19 1019.4 1018.9 0.0
04/12:00pm 25.8 19.4 -1.9 16 12.5 ESE 22 35 12 19 1019.9 1019.4 0.0
04/11:30am 25.9 19.2 -1.0 17 12.3 ESE 24 35 13 19 1020.4 1019.9 0.0
04/11:00am 25.0 18.6 -1.7 17 12.0 E 22 39 12 21 1020.7 1020.2 0.0
04/10:30am 24.8 17.7 -1.1 18 11.8 ESE 26 37 14 20 1021.1 1020.6 0.0
04/10:00am 24.4 19.2 0.0 20 11.2 ESE 17 28 9 15 1021.2 1020.7 0.0
04/09:30am 23.6 18.6 1.3 23 10.5 ESE 17 22 9 12 1021.3 1020.8 0.0
04/09:00am 22.4 17.3 0.9 24 9.9 ESE 17 24 9 13 1021.4 1020.9 0.0
04/08:30am 21.3 16.7 1.6 27 9.2 SE 15 19 8 10 1021.2 1020.7 0.0
04/08:00am 18.7 15.6 3.7 37 7.1 SSE 9 11 5 6 1021.0 1020.5 0.0
04/07:30am 15.9 13.2 3.7 44 5.7 SE 7 9 4 5 1020.7 1020.2 0.0
04/07:00am 12.9 10.3 3.3 52 4.3 SE 6 7 3 4 1020.3 1019.8 0.0
04/06:30am 12.8 9.6 2.9 51 4.4 SE 9 9 5 5 1020.0 1019.5 0.0
04/06:00am 12.6 10.0 3.3 53 4.2 SE 6 7 3 4 1019.8 1019.3 0.0
04/05:30am 12.4 9.3 3.6 55 4.0 SE 9 9 5 5 1019.7 1019.2 0.0
04/05:00am 12.6 10.5 3.8 55 4.0 SSE 4 6 2 3 1019.5 1019.0 0.0
04/04:30am 12.2 9.7 3.9 57 3.8 SSE 6 9 3 5 1019.6 1019.1 0.0
04/04:00am 12.8 10.4 4.3 56 3.9 S 6 6 3 3 1019.6 1019.1 0.0
04/03:30am 13.7 11.7 4.3 53 4.3 S 4 6 2 3 1019.6 1019.1 0.0
04/03:00am 13.8 11.4 4.1 52 4.5 SSW 6 7 3 4 1019.9 1019.4 0.0
04/02:30am 13.7 12.0 4.0 52 4.5 S 2 4 1 2 1019.7 1019.2 0.0
04/02:00am 14.0 12.3 3.8 50 4.7 S 2 4 1 2 1019.9 1019.4 0.0
04/01:30am 14.6 12.5 3.7 48 5.0 SSE 4 4 2 2 1019.9 1019.4 0.0
04/01:00am 15.0 12.5 3.8 47 5.2 SSE 6 7 3 4 1019.9 1019.4 0.0
04/12:30am 16.4 14.2 3.5 42 6.0 S 4 7 2 4 1020.0 1019.5 0.0
04/12:00am 17.1 13.6 3.4 40 6.4 SE 11 15 6 8 1020.2 1019.7 0.0
 
Date/Time
WST
Temp
°C
App
Temp
°C
Dew
Point
Rel
Hum
%
Delta-T
°C
Wind Press
QNH
hPa
Press
MSL
hPa
Rain
since 9 am
mm
Dir
 
Spd
km/h
Gust
km/h
Spd
kts
Gust
kts
03/11:30pm 17.4 13.9 3.3 39 6.6 SE 11 13 6 7 1020.3 1019.8 0.0
03/11:00pm 17.6 14.1 3.5 39 6.6 SE 11 13 6 7 1020.4 1019.9 0.0
03/10:30pm 17.2 14.1 3.5 40 6.4 SE 9 11 5 6 1020.5 1020.0 0.0
03/10:00pm 17.4 14.8 3.3 39 6.6 SSE 6 7 3 4 1020.6 1020.1 0.0
03/09:30pm 18.8 15.2 3.0 35 7.4 SE 11 13 6 7 1020.5 1020.0 0.0
03/09:00pm 19.0 15.8 3.2 35 7.4 SE 9 11 5 6 1020.4 1019.9 0.0
03/08:30pm 19.2 16.1 3.4 35 7.5 SE 9 11 5 6 1020.4 1019.9 0.0
03/08:00pm 19.3 15.8 3.5 35 7.5 SE 11 13 6 7 1020.3 1019.8 0.0
03/07:30pm 19.6 16.1 3.7 35 7.6 SE 11 13 6 7 1020.1 1019.6 0.0
03/07:00pm 20.2 16.7 3.4 33 8.0 SE 11 13 6 7 1019.8 1019.3 0.0
03/06:30pm 20.9 17.8 3.6 32 8.3 SE 9 11 5 6 1019.6 1019.1 0.0
03/06:00pm 21.9 18.8 3.6 30 8.9 SE 9 11 5 6 1019.3 1018.8 0.0
03/05:30pm 23.9 20.7 3.2 26 10.1 SE 9 11 5 6 1018.9 1018.4 0.0
03/05:00pm 25.9 22.6 2.6 22 11.4 SE 9 15 5 8 1018.7 1018.2 0.0
03/04:30pm 26.8 23.4 2.0 20 12.1 ESE 9 19 5 10 1018.4 1017.9 0.0
03/04:00pm 27.2 23.5 2.3 20 12.2 ESE 11 20 6 11 1018.2 1017.7 0.0
03/03:30pm 27.4 22.8 1.8 19 12.5 ESE 15 20 8 11 1018.1 1017.6 0.0
03/03:00pm 27.8 24.4 2.1 19 12.6 SSE 9 19 5 10 1018.2 1017.7 0.0
03/02:30pm 27.6 23.9 2.6 20 12.4 ENE 11 17 6 9 1018.3 1017.8 0.0
03/02:00pm 27.6 24.2 1.9 19 12.6 E 9 17 5 9 1018.6 1018.1 0.0
03/01:30pm 27.5 23.3 1.8 19 12.6 SE 13 22 7 12 1019.0 1018.5 0.0
03/01:00pm 27.6 24.7 2.6 20 12.4 SE 7 17 4 9 1019.3 1018.8 0.0
03/12:30pm 27.4 23.0 2.5 20 12.3 E 15 24 8 13 1019.8 1019.3 0.0
03/12:00pm 27.0 22.9 2.1 20 12.1 ESE 13 24 7 13 1020.4 1019.9 0.0
03/11:30am 26.5 21.7 2.4 21 11.8 SE 17 24 9 13 1021.1 1020.6 0.0
03/11:00am 26.0 21.6 2.7 22 11.4 ESE 15 20 8 11 1021.7 1021.2 0.0
03/10:30am 25.1 20.3 2.5 23 11.0 ESE 17 22 9 12 1022.0 1021.6 0.0
03/10:00am 24.2 19.8 2.9 25 10.3 ESE 15 22 8 12 1022.3 1021.9 0.0
03/09:30am 23.0 17.7 3.0 27 9.7 ESE 20 30 11 16 1022.6 1022.2 0.0
03/09:00am 22.1 17.9 3.7 30 8.9 ESE 15 22 8 12 1022.5 1022.1 0.0
03/08:30am 20.7 19.1 4.7 35 7.9 SSE 2 6 1 3 1022.5 1022.1 0.0
03/08:00am 18.1 15.8 5.0 42 6.3 SSW 6 7 3 4 1022.1 1021.7 0.0

Other Formats:

Comma delimited format used in spreadsheet applications
http://www.bom.gov.au/fwo/IDW60801/IDW60801.95317.axf

JavaScript Object Notation format (JSON) in row-major order
http://www.bom.gov.au/fwo/IDW60801/IDW60801.95317.json